sensor_id;sensor_type;location;lat;lon;timestamp;P1;durP1;ratioP1;P2;durP2;ratioP2
19446;SDS011;9862;49.462;11.054;2022-10-19T00:01:01;8.85;;;5.90;;
19446;SDS011;9862;49.462;11.054;2022-10-19T00:03:29;10.48;;;5.90;;
19446;SDS011;9862;49.462;11.054;2022-10-19T00:05:56;6.72;;;4.88;;
19446;SDS011;9862;49.462;11.054;2022-10-19T00:08:23;11.07;;;6.60;;
19446;SDS011;9862;49.462;11.054;2022-10-19T00:10:51;11.30;;;6.43;;
19446;SDS011;9862;49.462;11.054;2022-10-19T00:13:18;14.80;;;7.50;;
19446;SDS011;9862;49.462;11.054;2022-10-19T00:15:45;14.27;;;7.00;;
19446;SDS011;9862;49.462;11.054;2022-10-19T00:18:12;21.10;;;7.32;;
19446;SDS011;9862;49.462;11.054;2022-10-19T00:20:38;12.23;;;7.43;;
19446;SDS011;9862;49.462;11.054;2022-10-19T00:23:05;10.30;;;6.40;;
19446;SDS011;9862;49.462;11.054;2022-10-19T00:25:32;9.13;;;6.47;;
19446;SDS011;9862;49.462;11.054;2022-10-19T00:28:00;7.95;;;5.97;;
19446;SDS011;9862;49.462;11.054;2022-10-19T00:30:27;7.40;;;5.75;;
19446;SDS011;9862;49.462;11.054;2022-10-19T00:32:54;7.20;;;5.68;;
19446;SDS011;9862;49.462;11.054;2022-10-19T00:35:20;10.13;;;6.28;;
19446;SDS011;9862;49.462;11.054;2022-10-19T00:37:47;7.75;;;5.15;;
19446;SDS011;9862;49.462;11.054;2022-10-19T00:40:14;7.13;;;5.35;;
19446;SDS011;9862;49.462;11.054;2022-10-19T00:42:41;8.05;;;5.07;;
19446;SDS011;9862;49.462;11.054;2022-10-19T00:45:13;8.73;;;5.97;;
19446;SDS011;9862;49.462;11.054;2022-10-19T00:47:42;7.00;;;5.40;;
19446;SDS011;9862;49.462;11.054;2022-10-19T00:50:10;7.60;;;5.20;;
19446;SDS011;9862;49.462;11.054;2022-10-19T00:52:41;6.07;;;4.30;;
19446;SDS011;9862;49.462;11.054;2022-10-19T00:55:09;7.38;;;4.97;;
19446;SDS011;9862;49.462;11.054;2022-10-19T00:57:37;7.60;;;5.63;;
19446;SDS011;9862;49.462;11.054;2022-10-19T01:00:05;7.35;;;4.70;;
19446;SDS011;9862;49.462;11.054;2022-10-19T01:02:36;6.22;;;5.00;;
19446;SDS011;9862;49.462;11.054;2022-10-19T01:05:03;6.93;;;4.38;;
19446;SDS011;9862;49.462;11.054;2022-10-19T01:07:31;8.52;;;4.85;;
19446;SDS011;9862;49.462;11.054;2022-10-19T01:09:58;8.38;;;4.88;;
19446;SDS011;9862;49.462;11.054;2022-10-19T01:12:36;9.82;;;5.20;;
19446;SDS011;9862;49.462;11.054;2022-10-19T01:15:20;6.78;;;5.20;;
19446;SDS011;9862;49.462;11.054;2022-10-19T01:17:59;14.43;;;5.63;;
19446;SDS011;9862;49.462;11.054;2022-10-19T01:20:45;8.63;;;4.97;;
19446;SDS011;9862;49.462;11.054;2022-10-19T01:30:05;4.85;;;4.28;;
19446;SDS011;9862;49.462;11.054;2022-10-19T01:32:45;5.93;;;3.83;;
19446;SDS011;9862;49.462;11.054;2022-10-19T01:35:19;5.38;;;3.85;;
19446;SDS011;9862;49.462;11.054;2022-10-19T01:37:55;4.38;;;3.97;;
19446;SDS011;9862;49.462;11.054;2022-10-19T01:40:30;3.80;;;3.40;;
19446;SDS011;9862;49.462;11.054;2022-10-19T01:43:06;4.30;;;3.58;;
19446;SDS011;9862;49.462;11.054;2022-10-19T01:45:41;6.30;;;4.57;;
19446;SDS011;9862;49.462;11.054;2022-10-19T01:48:13;6.63;;;4.25;;
19446;SDS011;9862;49.462;11.054;2022-10-19T01:50:44;4.78;;;3.83;;
19446;SDS011;9862;49.462;11.054;2022-10-19T01:53:17;5.43;;;4.00;;
19446;SDS011;9862;49.462;11.054;2022-10-19T01:55:49;8.60;;;4.60;;
19446;SDS011;9862;49.462;11.054;2022-10-19T01:58:20;5.95;;;3.83;;
19446;SDS011;9862;49.462;11.054;2022-10-19T02:00:52;4.57;;;3.65;;
19446;SDS011;9862;49.462;11.054;2022-10-19T02:03:24;4.00;;;3.03;;
19446;SDS011;9862;49.462;11.054;2022-10-19T02:05:53;4.93;;;3.40;;
19446;SDS011;9862;49.462;11.054;2022-10-19T02:08:25;3.53;;;3.08;;
19446;SDS011;9862;49.462;11.054;2022-10-19T02:10:56;5.18;;;3.58;;
19446;SDS011;9862;49.462;11.054;2022-10-19T02:13:28;4.70;;;3.72;;
19446;SDS011;9862;49.462;11.054;2022-10-19T02:15:58;5.05;;;3.80;;
19446;SDS011;9862;49.462;11.054;2022-10-19T02:18:33;3.58;;;3.15;;
19446;SDS011;9862;49.462;11.054;2022-10-19T02:21:03;5.53;;;4.15;;
19446;SDS011;9862;49.462;11.054;2022-10-19T02:23:32;6.72;;;4.15;;
19446;SDS011;9862;49.462;11.054;2022-10-19T02:26:02;6.35;;;4.18;;
19446;SDS011;9862;49.462;11.054;2022-10-19T02:28:32;6.95;;;4.15;;
19446;SDS011;9862;49.462;11.054;2022-10-19T02:31:02;6.50;;;4.55;;
19446;SDS011;9862;49.462;11.054;2022-10-19T02:33:30;7.47;;;5.10;;
19446;SDS011;9862;49.462;11.054;2022-10-19T02:35:58;5.80;;;4.50;;
19446;SDS011;9862;49.462;11.054;2022-10-19T02:38:25;6.63;;;4.60;;
19446;SDS011;9862;49.462;11.054;2022-10-19T02:40:57;6.32;;;4.30;;
19446;SDS011;9862;49.462;11.054;2022-10-19T02:43:29;6.82;;;4.60;;
19446;SDS011;9862;49.462;11.054;2022-10-19T02:46:05;4.22;;;3.63;;
19446;SDS011;9862;49.462;11.054;2022-10-19T02:48:35;5.85;;;4.47;;
19446;SDS011;9862;49.462;11.054;2022-10-19T02:51:06;7.28;;;4.40;;
19446;SDS011;9862;49.462;11.054;2022-10-19T02:53:52;7.95;;;5.72;;
19446;SDS011;9862;49.462;11.054;2022-10-19T02:56:18;6.88;;;4.85;;
19446;SDS011;9862;49.462;11.054;2022-10-19T02:58:46;6.80;;;5.03;;
19446;SDS011;9862;49.462;11.054;2022-10-19T03:01:14;7.63;;;4.65;;
19446;SDS011;9862;49.462;11.054;2022-10-19T03:03:45;6.80;;;4.85;;
19446;SDS011;9862;49.462;11.054;2022-10-19T03:06:13;6.68;;;4.75;;
19446;SDS011;9862;49.462;11.054;2022-10-19T03:08:45;7.85;;;4.90;;
19446;SDS011;9862;49.462;11.054;2022-10-19T03:11:16;8.65;;;6.57;;
19446;SDS011;9862;49.462;11.054;2022-10-19T03:13:45;9.45;;;5.07;;
19446;SDS011;9862;49.462;11.054;2022-10-19T03:16:25;7.55;;;4.65;;
19446;SDS011;9862;49.462;11.054;2022-10-19T03:19:12;6.20;;;4.60;;
19446;SDS011;9862;49.462;11.054;2022-10-19T03:21:58;6.80;;;5.03;;
19446;SDS011;9862;49.462;11.054;2022-10-19T03:24:45;14.85;;;5.05;;
19446;SDS011;9862;49.462;11.054;2022-10-19T03:27:32;8.60;;;5.75;;
19446;SDS011;9862;49.462;11.054;2022-10-19T03:30:19;31.30;;;17.67;;
19446;SDS011;9862;49.462;11.054;2022-10-19T03:33:07;33.85;;;20.35;;
19446;SDS011;9862;49.462;11.054;2022-10-19T03:38:59;10.98;;;7.38;;
19446;SDS011;9862;49.462;11.054;2022-10-19T03:41:46;9.90;;;6.28;;
19446;SDS011;9862;49.462;11.054;2022-10-19T03:44:33;6.93;;;5.43;;
19446;SDS011;9862;49.462;11.054;2022-10-19T03:47:19;8.88;;;5.78;;
19446;SDS011;9862;49.462;11.054;2022-10-19T03:50:08;16.58;;;6.45;;
19446;SDS011;9862;49.462;11.054;2022-10-19T03:52:58;12.93;;;6.13;;
19446;SDS011;9862;49.462;11.054;2022-10-19T03:55:44;8.48;;;5.78;;
19446;SDS011;9862;49.462;11.054;2022-10-19T03:58:32;7.72;;;5.70;;
19446;SDS011;9862;49.462;11.054;2022-10-19T04:01:21;10.40;;;6.22;;
19446;SDS011;9862;49.462;11.054;2022-10-19T04:04:09;8.57;;;5.18;;
19446;SDS011;9862;49.462;11.054;2022-10-19T04:06:59;11.63;;;5.60;;
19446;SDS011;9862;49.462;11.054;2022-10-19T04:09:45;9.18;;;5.45;;
19446;SDS011;9862;49.462;11.054;2022-10-19T04:12:32;6.40;;;4.97;;
19446;SDS011;9862;49.462;11.054;2022-10-19T04:15:18;8.25;;;4.22;;
19446;SDS011;9862;49.462;11.054;2022-10-19T04:18:05;9.05;;;5.05;;
19446;SDS011;9862;49.462;11.054;2022-10-19T04:20:55;7.78;;;4.88;;
19446;SDS011;9862;49.462;11.054;2022-10-19T04:23:44;7.13;;;4.20;;
19446;SDS011;9862;49.462;11.054;2022-10-19T04:26:30;8.02;;;5.45;;
19446;SDS011;9862;49.462;11.054;2022-10-19T04:29:18;8.20;;;5.00;;
19446;SDS011;9862;49.462;11.054;2022-10-19T04:32:07;9.77;;;5.10;;
19446;SDS011;9862;49.462;11.054;2022-10-19T04:34:54;8.40;;;5.10;;
19446;SDS011;9862;49.462;11.054;2022-10-19T04:37:40;8.30;;;5.40;;
19446;SDS011;9862;49.462;11.054;2022-10-19T04:40:28;10.75;;;5.40;;
19446;SDS011;9862;49.462;11.054;2022-10-19T04:43:15;9.55;;;6.32;;
19446;SDS011;9862;49.462;11.054;2022-10-19T04:46:03;12.95;;;7.00;;
19446;SDS011;9862;49.462;11.054;2022-10-19T04:48:59;10.30;;;6.22;;
19446;SDS011;9862;49.462;11.054;2022-10-19T04:51:48;11.88;;;6.10;;
19446;SDS011;9862;49.462;11.054;2022-10-19T04:54:34;14.18;;;6.70;;
19446;SDS011;9862;49.462;11.054;2022-10-19T04:57:22;21.70;;;11.23;;
19446;SDS011;9862;49.462;11.054;2022-10-19T05:00:09;40.45;;;21.33;;
19446;SDS011;9862;49.462;11.054;2022-10-19T05:02:57;32.80;;;16.50;;
19446;SDS011;9862;49.462;11.054;2022-10-19T05:05:43;22.38;;;12.52;;
19446;SDS011;9862;49.462;11.054;2022-10-19T05:08:30;17.67;;;8.82;;
19446;SDS011;9862;49.462;11.054;2022-10-19T05:11:17;10.07;;;6.20;;
19446;SDS011;9862;49.462;11.054;2022-10-19T05:13:48;3.42;;;2.75;;
19446;SDS011;9862;49.462;11.054;2022-10-19T05:16:16;4.93;;;3.70;;
19446;SDS011;9862;49.462;11.054;2022-10-19T05:18:45;7.82;;;4.45;;
19446;SDS011;9862;49.462;11.054;2022-10-19T05:21:14;8.30;;;4.63;;
19446;SDS011;9862;49.462;11.054;2022-10-19T05:23:41;6.72;;;3.65;;
19446;SDS011;9862;49.462;11.054;2022-10-19T05:26:09;4.95;;;3.78;;
19446;SDS011;9862;49.462;11.054;2022-10-19T05:28:38;10.02;;;6.07;;
19446;SDS011;9862;49.462;11.054;2022-10-19T05:31:08;7.47;;;5.18;;
19446;SDS011;9862;49.462;11.054;2022-10-19T05:33:36;4.80;;;3.92;;
19446;SDS011;9862;49.462;11.054;2022-10-19T05:36:14;6.72;;;3.90;;
19446;SDS011;9862;49.462;11.054;2022-10-19T05:38:42;5.63;;;3.97;;
19446;SDS011;9862;49.462;11.054;2022-10-19T05:41:09;5.93;;;3.33;;
19446;SDS011;9862;49.462;11.054;2022-10-19T05:43:36;8.18;;;3.85;;
19446;SDS011;9862;49.462;11.054;2022-10-19T05:46:03;5.25;;;3.33;;
19446;SDS011;9862;49.462;11.054;2022-10-19T05:48:32;8.77;;;3.85;;
19446;SDS011;9862;49.462;11.054;2022-10-19T05:50:59;4.80;;;3.53;;
19446;SDS011;9862;49.462;11.054;2022-10-19T05:53:27;6.07;;;3.47;;
19446;SDS011;9862;49.462;11.054;2022-10-19T05:55:54;5.00;;;3.33;;
19446;SDS011;9862;49.462;11.054;2022-10-19T05:58:22;4.20;;;3.17;;
19446;SDS011;9862;49.462;11.054;2022-10-19T06:00:50;6.40;;;4.13;;
19446;SDS011;9862;49.462;11.054;2022-10-19T06:03:18;6.50;;;3.15;;
19446;SDS011;9862;49.462;11.054;2022-10-19T06:05:47;4.13;;;3.28;;
19446;SDS011;9862;49.462;11.054;2022-10-19T06:08:15;4.30;;;3.30;;
19446;SDS011;9862;49.462;11.054;2022-10-19T06:10:42;5.43;;;3.65;;
19446;SDS011;9862;49.462;11.054;2022-10-19T06:13:11;3.90;;;3.10;;
19446;SDS011;9862;49.462;11.054;2022-10-19T06:15:39;7.57;;;3.63;;
19446;SDS011;9862;49.462;11.054;2022-10-19T06:18:07;4.97;;;3.45;;
19446;SDS011;9862;49.462;11.054;2022-10-19T06:20:36;3.08;;;2.60;;
19446;SDS011;9862;49.462;11.054;2022-10-19T06:23:05;5.15;;;3.08;;
19446;SDS011;9862;49.462;11.054;2022-10-19T06:25:33;5.07;;;2.92;;
19446;SDS011;9862;49.462;11.054;2022-10-19T06:28:01;3.40;;;2.67;;
19446;SDS011;9862;49.462;11.054;2022-10-19T06:30:29;3.20;;;2.72;;
19446;SDS011;9862;49.462;11.054;2022-10-19T06:32:57;5.35;;;3.22;;
19446;SDS011;9862;49.462;11.054;2022-10-19T06:35:23;7.00;;;3.03;;
19446;SDS011;9862;49.462;11.054;2022-10-19T06:37:51;10.82;;;3.15;;
19446;SDS011;9862;49.462;11.054;2022-10-19T06:40:19;8.45;;;2.50;;
19446;SDS011;9862;49.462;11.054;2022-10-19T06:42:46;3.83;;;2.75;;
19446;SDS011;9862;49.462;11.054;2022-10-19T06:45:13;4.30;;;2.88;;
19446;SDS011;9862;49.462;11.054;2022-10-19T06:47:40;5.75;;;3.25;;
19446;SDS011;9862;49.462;11.054;2022-10-19T06:50:09;5.05;;;3.15;;
19446;SDS011;9862;49.462;11.054;2022-10-19T06:52:37;3.55;;;2.30;;
19446;SDS011;9862;49.462;11.054;2022-10-19T06:55:05;3.42;;;2.25;;
19446;SDS011;9862;49.462;11.054;2022-10-19T06:57:34;2.83;;;2.40;;
19446;SDS011;9862;49.462;11.054;2022-10-19T07:00:01;3.47;;;2.67;;
19446;SDS011;9862;49.462;11.054;2022-10-19T07:02:28;3.28;;;2.38;;
19446;SDS011;9862;49.462;11.054;2022-10-19T07:04:54;3.22;;;2.58;;
19446;SDS011;9862;49.462;11.054;2022-10-19T07:07:23;3.70;;;2.70;;
19446;SDS011;9862;49.462;11.054;2022-10-19T07:09:49;4.93;;;2.40;;
19446;SDS011;9862;49.462;11.054;2022-10-19T07:12:17;5.68;;;2.80;;
19446;SDS011;9862;49.462;11.054;2022-10-19T07:14:46;4.72;;;2.83;;
19446;SDS011;9862;49.462;11.054;2022-10-19T07:17:12;3.97;;;1.80;;
19446;SDS011;9862;49.462;11.054;2022-10-19T07:19:39;4.18;;;2.22;;
19446;SDS011;9862;49.462;11.054;2022-10-19T07:22:05;3.10;;;2.22;;
19446;SDS011;9862;49.462;11.054;2022-10-19T07:24:32;4.05;;;2.30;;
19446;SDS011;9862;49.462;11.054;2022-10-19T07:26:59;4.25;;;2.58;;
19446;SDS011;9862;49.462;11.054;2022-10-19T07:29:26;5.75;;;2.30;;
19446;SDS011;9862;49.462;11.054;2022-10-19T07:31:54;7.20;;;2.40;;
19446;SDS011;9862;49.462;11.054;2022-10-19T07:34:21;8.38;;;2.75;;
19446;SDS011;9862;49.462;11.054;2022-10-19T07:36:47;3.20;;;2.50;;
19446;SDS011;9862;49.462;11.054;2022-10-19T07:39:15;3.72;;;2.70;;
19446;SDS011;9862;49.462;11.054;2022-10-19T07:41:42;8.52;;;2.58;;
19446;SDS011;9862;49.462;11.054;2022-10-19T07:44:09;9.95;;;3.05;;
19446;SDS011;9862;49.462;11.054;2022-10-19T07:46:36;4.72;;;2.70;;
19446;SDS011;9862;49.462;11.054;2022-10-19T07:49:07;8.88;;;2.80;;
19446;SDS011;9862;49.462;11.054;2022-10-19T07:51:35;2.67;;;2.33;;
19446;SDS011;9862;49.462;11.054;2022-10-19T07:54:02;5.63;;;2.72;;
19446;SDS011;9862;49.462;11.054;2022-10-19T07:56:29;3.95;;;2.50;;
19446;SDS011;9862;49.462;11.054;2022-10-19T07:58:57;17.08;;;2.90;;
19446;SDS011;9862;49.462;11.054;2022-10-19T08:01:28;7.47;;;2.65;;
19446;SDS011;9862;49.462;11.054;2022-10-19T08:03:57;8.55;;;3.15;;
19446;SDS011;9862;49.462;11.054;2022-10-19T08:06:27;3.83;;;2.85;;
19446;SDS011;9862;49.462;11.054;2022-10-19T08:08:53;4.18;;;2.30;;
19446;SDS011;9862;49.462;11.054;2022-10-19T08:11:22;5.78;;;3.38;;
19446;SDS011;9862;49.462;11.054;2022-10-19T08:13:51;8.73;;;3.25;;
19446;SDS011;9862;49.462;11.054;2022-10-19T08:16:20;5.82;;;3.00;;
19446;SDS011;9862;49.462;11.054;2022-10-19T08:18:50;4.15;;;2.47;;
19446;SDS011;9862;49.462;11.054;2022-10-19T08:21:17;5.50;;;2.42;;
19446;SDS011;9862;49.462;11.054;2022-10-19T08:23:45;8.60;;;2.22;;
19446;SDS011;9862;49.462;11.054;2022-10-19T08:26:12;9.48;;;2.58;;
19446;SDS011;9862;49.462;11.054;2022-10-19T08:28:39;15.07;;;2.80;;
19446;SDS011;9862;49.462;11.054;2022-10-19T08:31:10;5.05;;;2.10;;
19446;SDS011;9862;49.462;11.054;2022-10-19T08:33:38;10.88;;;2.40;;
19446;SDS011;9862;49.462;11.054;2022-10-19T08:36:05;12.05;;;2.60;;
19446;SDS011;9862;49.462;11.054;2022-10-19T08:38:33;6.05;;;2.83;;
19446;SDS011;9862;49.462;11.054;2022-10-19T08:41:04;6.47;;;3.78;;
19446;SDS011;9862;49.462;11.054;2022-10-19T08:43:41;6.70;;;3.25;;
19446;SDS011;9862;49.462;11.054;2022-10-19T08:46:21;4.00;;;3.20;;
19446;SDS011;9862;49.462;11.054;2022-10-19T08:48:57;6.60;;;3.00;;
19446;SDS011;9862;49.462;11.054;2022-10-19T08:51:25;5.13;;;3.22;;
19446;SDS011;9862;49.462;11.054;2022-10-19T08:53:54;4.40;;;3.13;;
19446;SDS011;9862;49.462;11.054;2022-10-19T08:56:28;4.47;;;2.65;;
19446;SDS011;9862;49.462;11.054;2022-10-19T08:59:04;4.20;;;2.90;;
19446;SDS011;9862;49.462;11.054;2022-10-19T09:01:38;4.68;;;2.90;;
19446;SDS011;9862;49.462;11.054;2022-10-19T09:04:12;4.63;;;2.90;;
19446;SDS011;9862;49.462;11.054;2022-10-19T09:06:50;3.70;;;2.95;;
19446;SDS011;9862;49.462;11.054;2022-10-19T09:09:29;4.10;;;2.78;;
19446;SDS011;9862;49.462;11.054;2022-10-19T09:12:02;5.53;;;3.20;;
19446;SDS011;9862;49.462;11.054;2022-10-19T09:14:31;8.02;;;3.70;;
19446;SDS011;9862;49.462;11.054;2022-10-19T09:17:02;4.75;;;3.72;;
19446;SDS011;9862;49.462;11.054;2022-10-19T09:19:35;7.10;;;3.63;;
19446;SDS011;9862;49.462;11.054;2022-10-19T09:22:03;8.10;;;3.80;;
19446;SDS011;9862;49.462;11.054;2022-10-19T09:24:35;6.80;;;3.97;;
19446;SDS011;9862;49.462;11.054;2022-10-19T09:27:13;7.35;;;4.60;;
19446;SDS011;9862;49.462;11.054;2022-10-19T09:29:47;8.32;;;3.70;;
19446;SDS011;9862;49.462;11.054;2022-10-19T09:32:17;6.18;;;4.32;;
19446;SDS011;9862;49.462;11.054;2022-10-19T09:34:48;7.38;;;4.10;;
19446;SDS011;9862;49.462;11.054;2022-10-19T09:37:18;7.05;;;4.25;;
19446;SDS011;9862;49.462;11.054;2022-10-19T09:39:46;6.63;;;4.05;;
19446;SDS011;9862;49.462;11.054;2022-10-19T09:42:16;7.63;;;4.93;;
19446;SDS011;9862;49.462;11.054;2022-10-19T09:44:47;7.80;;;4.55;;
19446;SDS011;9862;49.462;11.054;2022-10-19T09:47:19;7.65;;;4.60;;
19446;SDS011;9862;49.462;11.054;2022-10-19T09:50:04;9.60;;;4.80;;
19446;SDS011;9862;49.462;11.054;2022-10-19T09:52:34;8.05;;;4.40;;
19446;SDS011;9862;49.462;11.054;2022-10-19T09:55:03;7.32;;;4.47;;
19446;SDS011;9862;49.462;11.054;2022-10-19T09:57:33;15.95;;;6.18;;
19446;SDS011;9862;49.462;11.054;2022-10-19T10:00:15;9.35;;;5.63;;
19446;SDS011;9862;49.462;11.054;2022-10-19T10:02:45;9.35;;;5.25;;
19446;SDS011;9862;49.462;11.054;2022-10-19T10:05:14;8.25;;;5.07;;
19446;SDS011;9862;49.462;11.054;2022-10-19T10:07:41;7.65;;;4.78;;
19446;SDS011;9862;49.462;11.054;2022-10-19T10:10:09;7.60;;;4.78;;
19446;SDS011;9862;49.462;11.054;2022-10-19T10:12:46;11.93;;;6.13;;
19446;SDS011;9862;49.462;11.054;2022-10-19T10:15:14;8.68;;;5.40;;
19446;SDS011;9862;49.462;11.054;2022-10-19T10:17:44;8.18;;;5.05;;
19446;SDS011;9862;49.462;11.054;2022-10-19T10:20:17;8.27;;;5.50;;
19446;SDS011;9862;49.462;11.054;2022-10-19T10:22:53;10.63;;;6.25;;
19446;SDS011;9862;49.462;11.054;2022-10-19T10:25:23;10.90;;;6.40;;
19446;SDS011;9862;49.462;11.054;2022-10-19T10:27:58;9.43;;;5.90;;
19446;SDS011;9862;49.462;11.054;2022-10-19T10:30:28;12.25;;;6.18;;
19446;SDS011;9862;49.462;11.054;2022-10-19T10:32:59;9.23;;;6.22;;
19446;SDS011;9862;49.462;11.054;2022-10-19T10:35:28;8.73;;;5.95;;
19446;SDS011;9862;49.462;11.054;2022-10-19T10:38:06;8.63;;;6.32;;
19446;SDS011;9862;49.462;11.054;2022-10-19T10:40:35;8.95;;;5.85;;
19446;SDS011;9862;49.462;11.054;2022-10-19T10:43:06;11.73;;;6.97;;
19446;SDS011;9862;49.462;11.054;2022-10-19T10:45:40;11.00;;;6.38;;
19446;SDS011;9862;49.462;11.054;2022-10-19T10:48:13;12.10;;;7.22;;
19446;SDS011;9862;49.462;11.054;2022-10-19T10:50:45;9.85;;;6.35;;
19446;SDS011;9862;49.462;11.054;2022-10-19T10:53:29;12.40;;;7.15;;
19446;SDS011;9862;49.462;11.054;2022-10-19T10:55:58;10.13;;;6.93;;
19446;SDS011;9862;49.462;11.054;2022-10-19T10:58:30;8.55;;;6.22;;
19446;SDS011;9862;49.462;11.054;2022-10-19T11:01:04;12.57;;;7.13;;
19446;SDS011;9862;49.462;11.054;2022-10-19T11:03:38;9.77;;;6.65;;
19446;SDS011;9862;49.462;11.054;2022-10-19T11:06:10;8.93;;;6.60;;
19446;SDS011;9862;49.462;11.054;2022-10-19T11:08:39;10.65;;;6.50;;
19446;SDS011;9862;49.462;11.054;2022-10-19T11:11:13;10.40;;;6.90;;
19446;SDS011;9862;49.462;11.054;2022-10-19T11:13:45;10.43;;;7.10;;
19446;SDS011;9862;49.462;11.054;2022-10-19T11:16:16;11.10;;;6.35;;
19446;SDS011;9862;49.462;11.054;2022-10-19T11:18:45;15.18;;;7.93;;
19446;SDS011;9862;49.462;11.054;2022-10-19T11:21:16;14.52;;;7.75;;
19446;SDS011;9862;49.462;11.054;2022-10-19T11:23:51;13.15;;;7.50;;
19446;SDS011;9862;49.462;11.054;2022-10-19T11:26:34;11.82;;;7.05;;
19446;SDS011;9862;49.462;11.054;2022-10-19T11:29:14;14.75;;;6.88;;
19446;SDS011;9862;49.462;11.054;2022-10-19T11:31:53;10.52;;;6.38;;
19446;SDS011;9862;49.462;11.054;2022-10-19T11:34:35;11.15;;;6.28;;
19446;SDS011;9862;49.462;11.054;2022-10-19T11:37:15;9.20;;;6.00;;
19446;SDS011;9862;49.462;11.054;2022-10-19T11:39:50;9.52;;;6.10;;
19446;SDS011;9862;49.462;11.054;2022-10-19T11:42:33;11.73;;;7.35;;
19446;SDS011;9862;49.462;11.054;2022-10-19T11:45:17;11.82;;;6.25;;
19446;SDS011;9862;49.462;11.054;2022-10-19T11:47:56;9.10;;;6.15;;
19446;SDS011;9862;49.462;11.054;2022-10-19T11:50:43;9.52;;;6.38;;
19446;SDS011;9862;49.462;11.054;2022-10-19T11:53:17;10.02;;;6.53;;
19446;SDS011;9862;49.462;11.054;2022-10-19T11:55:53;12.25;;;6.40;;
19446;SDS011;9862;49.462;11.054;2022-10-19T11:58:30;11.15;;;6.55;;
19446;SDS011;9862;49.462;11.054;2022-10-19T12:01:10;8.95;;;5.97;;
19446;SDS011;9862;49.462;11.054;2022-10-19T12:06:57;9.32;;;6.32;;
19446;SDS011;9862;49.462;11.054;2022-10-19T12:09:37;10.05;;;6.88;;
19446;SDS011;9862;49.462;11.054;2022-10-19T12:12:19;8.93;;;6.47;;
19446;SDS011;9862;49.462;11.054;2022-10-19T12:14:52;11.07;;;6.18;;
19446;SDS011;9862;49.462;11.054;2022-10-19T12:17:27;8.90;;;5.70;;
19446;SDS011;9862;49.462;11.054;2022-10-19T12:19:57;10.90;;;7.15;;
19446;SDS011;9862;49.462;11.054;2022-10-19T12:22:28;9.93;;;6.32;;
19446;SDS011;9862;49.462;11.054;2022-10-19T12:24:57;11.25;;;7.03;;
19446;SDS011;9862;49.462;11.054;2022-10-19T12:27:27;8.05;;;5.53;;
19446;SDS011;9862;49.462;11.054;2022-10-19T12:30:00;10.15;;;6.15;;
19446;SDS011;9862;49.462;11.054;2022-10-19T12:32:35;9.43;;;6.10;;
19446;SDS011;9862;49.462;11.054;2022-10-19T12:35:16;7.97;;;5.72;;
19446;SDS011;9862;49.462;11.054;2022-10-19T12:37:54;9.55;;;5.68;;
19446;SDS011;9862;49.462;11.054;2022-10-19T12:40:27;7.95;;;5.35;;
19446;SDS011;9862;49.462;11.054;2022-10-19T12:43:01;9.48;;;6.15;;
19446;SDS011;9862;49.462;11.054;2022-10-19T12:45:34;9.15;;;4.88;;
19446;SDS011;9862;49.462;11.054;2022-10-19T12:48:16;6.85;;;5.00;;
19446;SDS011;9862;49.462;11.054;2022-10-19T12:53:38;11.15;;;5.60;;
19446;SDS011;9862;49.462;11.054;2022-10-19T12:56:07;7.35;;;4.97;;
19446;SDS011;9862;49.462;11.054;2022-10-19T12:58:43;7.75;;;5.18;;
19446;SDS011;9862;49.462;11.054;2022-10-19T13:01:17;8.63;;;5.43;;
19446;SDS011;9862;49.462;11.054;2022-10-19T13:03:47;8.18;;;5.30;;
19446;SDS011;9862;49.462;11.054;2022-10-19T13:06:18;7.15;;;5.07;;
19446;SDS011;9862;49.462;11.054;2022-10-19T13:08:57;7.20;;;4.95;;
19446;SDS011;9862;49.462;11.054;2022-10-19T13:11:26;9.10;;;5.30;;
19446;SDS011;9862;49.462;11.054;2022-10-19T13:13:54;6.07;;;4.60;;
19446;SDS011;9862;49.462;11.054;2022-10-19T13:16:30;8.95;;;4.97;;
19446;SDS011;9862;49.462;11.054;2022-10-19T13:19:16;7.20;;;4.75;;
19446;SDS011;9862;49.462;11.054;2022-10-19T13:21:48;8.25;;;4.60;;
19446;SDS011;9862;49.462;11.054;2022-10-19T13:24:29;5.47;;;4.18;;
19446;SDS011;9862;49.462;11.054;2022-10-19T13:29:51;7.70;;;4.47;;
19446;SDS011;9862;49.462;11.054;2022-10-19T13:35:31;7.63;;;4.22;;
19446;SDS011;9862;49.462;11.054;2022-10-19T13:38:10;4.68;;;3.55;;
19446;SDS011;9862;49.462;11.054;2022-10-19T13:40:55;4.38;;;3.60;;
19446;SDS011;9862;49.462;11.054;2022-10-19T13:43:27;7.50;;;3.97;;
19446;SDS011;9862;49.462;11.054;2022-10-19T13:45:59;5.80;;;4.30;;
19446;SDS011;9862;49.462;11.054;2022-10-19T13:48:32;4.70;;;4.13;;
19446;SDS011;9862;49.462;11.054;2022-10-19T13:51:11;4.93;;;3.50;;
19446;SDS011;9862;49.462;11.054;2022-10-19T13:53:49;7.75;;;4.13;;
19446;SDS011;9862;49.462;11.054;2022-10-19T13:56:26;5.40;;;4.05;;
19446;SDS011;9862;49.462;11.054;2022-10-19T14:02:30;5.53;;;4.20;;
19446;SDS011;9862;49.462;11.054;2022-10-19T14:05:29;5.85;;;4.60;;
19446;SDS011;9862;49.462;11.054;2022-10-19T14:08:15;5.53;;;4.03;;
19446;SDS011;9862;49.462;11.054;2022-10-19T14:10:57;6.90;;;4.32;;
19446;SDS011;9862;49.462;11.054;2022-10-19T14:13:27;6.72;;;4.10;;
19446;SDS011;9862;49.462;11.054;2022-10-19T14:15:55;7.43;;;3.60;;
19446;SDS011;9862;49.462;11.054;2022-10-19T14:18:25;5.18;;;3.65;;
19446;SDS011;9862;49.462;11.054;2022-10-19T14:20:55;9.77;;;4.13;;
19446;SDS011;9862;49.462;11.054;2022-10-19T14:23:24;7.88;;;3.80;;
19446;SDS011;9862;49.462;11.054;2022-10-19T14:25:53;6.68;;;3.70;;
19446;SDS011;9862;49.462;11.054;2022-10-19T14:28:24;8.77;;;3.53;;
19446;SDS011;9862;49.462;11.054;2022-10-19T14:30:56;4.93;;;3.40;;
19446;SDS011;9862;49.462;11.054;2022-10-19T14:33:25;6.40;;;4.38;;
19446;SDS011;9862;49.462;11.054;2022-10-19T14:35:53;10.77;;;6.65;;
19446;SDS011;9862;49.462;11.054;2022-10-19T14:38:25;7.00;;;5.45;;
19446;SDS011;9862;49.462;11.054;2022-10-19T14:40:57;4.85;;;4.07;;
19446;SDS011;9862;49.462;11.054;2022-10-19T14:43:24;5.00;;;3.90;;
19446;SDS011;9862;49.462;11.054;2022-10-19T14:46:02;4.22;;;3.58;;
19446;SDS011;9862;49.462;11.054;2022-10-19T14:48:35;4.13;;;3.05;;
19446;SDS011;9862;49.462;11.054;2022-10-19T14:51:04;4.38;;;3.28;;
19446;SDS011;9862;49.462;11.054;2022-10-19T14:53:42;4.85;;;3.58;;
19446;SDS011;9862;49.462;11.054;2022-10-19T14:56:14;5.50;;;3.70;;
19446;SDS011;9862;49.462;11.054;2022-10-19T14:58:43;5.25;;;3.72;;
19446;SDS011;9862;49.462;11.054;2022-10-19T15:01:15;3.75;;;3.35;;
19446;SDS011;9862;49.462;11.054;2022-10-19T15:03:44;5.30;;;3.78;;
19446;SDS011;9862;49.462;11.054;2022-10-19T15:06:14;4.85;;;3.42;;
19446;SDS011;9862;49.462;11.054;2022-10-19T15:08:45;6.65;;;4.68;;
19446;SDS011;9862;49.462;11.054;2022-10-19T15:11:20;21.13;;;13.35;;
19446;SDS011;9862;49.462;11.054;2022-10-19T15:13:55;11.18;;;7.53;;
19446;SDS011;9862;49.462;11.054;2022-10-19T15:16:28;6.65;;;4.43;;
19446;SDS011;9862;49.462;11.054;2022-10-19T15:18:56;6.05;;;3.60;;
19446;SDS011;9862;49.462;11.054;2022-10-19T15:21:28;4.90;;;4.28;;
19446;SDS011;9862;49.462;11.054;2022-10-19T15:24:05;4.15;;;3.58;;
19446;SDS011;9862;49.462;11.054;2022-10-19T15:26:41;8.27;;;4.25;;
19446;SDS011;9862;49.462;11.054;2022-10-19T15:29:18;4.05;;;3.47;;
19446;SDS011;9862;49.462;11.054;2022-10-19T15:31:47;15.80;;;9.13;;
19446;SDS011;9862;49.462;11.054;2022-10-19T15:34:21;6.85;;;4.40;;
19446;SDS011;9862;49.462;11.054;2022-10-19T15:36:53;8.45;;;6.25;;
19446;SDS011;9862;49.462;11.054;2022-10-19T15:39:24;12.77;;;6.90;;
19446;SDS011;9862;49.462;11.054;2022-10-19T15:44:47;4.65;;;4.13;;
19446;SDS011;9862;49.462;11.054;2022-10-19T15:47:20;6.88;;;4.53;;
19446;SDS011;9862;49.462;11.054;2022-10-19T15:49:52;7.10;;;5.00;;